sensor_id;sensor_type;location;lat;lon;timestamp;P1;durP1;ratioP1;P2;durP2;ratioP2
24034;SDS011;12242;50.952;4.678;2023-02-27T00:02:06;5.28;;;1.20;;
24034;SDS011;12242;50.952;4.678;2023-02-27T00:04:33;3.97;;;1.13;;
24034;SDS011;12242;50.952;4.678;2023-02-27T00:07:01;4.28;;;1.20;;
24034;SDS011;12242;50.952;4.678;2023-02-27T00:09:29;7.25;;;0.88;;
24034;SDS011;12242;50.952;4.678;2023-02-27T00:11:56;8.60;;;1.10;;
24034;SDS011;12242;50.952;4.678;2023-02-27T00:14:24;4.22;;;1.10;;
24034;SDS011;12242;50.952;4.678;2023-02-27T00:16:51;5.90;;;1.10;;
24034;SDS011;12242;50.952;4.678;2023-02-27T00:19:19;8.38;;;1.15;;
24034;SDS011;12242;50.952;4.678;2023-02-27T00:21:47;3.13;;;1.00;;
24034;SDS011;12242;50.952;4.678;2023-02-27T00:24:15;9.55;;;1.90;;
24034;SDS011;12242;50.952;4.678;2023-02-27T00:26:42;5.68;;;1.67;;
24034;SDS011;12242;50.952;4.678;2023-02-27T00:29:10;4.22;;;1.05;;
24034;SDS011;12242;50.952;4.678;2023-02-27T00:31:37;9.52;;;1.35;;
24034;SDS011;12242;50.952;4.678;2023-02-27T00:34:05;3.33;;;0.98;;
24034;SDS011;12242;50.952;4.678;2023-02-27T00:36:32;8.25;;;1.00;;
24034;SDS011;12242;50.952;4.678;2023-02-27T00:39:00;3.90;;;1.00;;
24034;SDS011;12242;50.952;4.678;2023-02-27T00:41:27;3.47;;;1.10;;
24034;SDS011;12242;50.952;4.678;2023-02-27T00:43:55;5.95;;;1.48;;
24034;SDS011;12242;50.952;4.678;2023-02-27T00:46:22;6.43;;;1.33;;
24034;SDS011;12242;50.952;4.678;2023-02-27T00:48:49;5.80;;;1.13;;
24034;SDS011;12242;50.952;4.678;2023-02-27T00:51:17;5.70;;;1.00;;
24034;SDS011;12242;50.952;4.678;2023-02-27T00:53:46;2.70;;;0.98;;
24034;SDS011;12242;50.952;4.678;2023-02-27T00:56:13;4.50;;;1.25;;
24034;SDS011;12242;50.952;4.678;2023-02-27T00:58:41;4.97;;;0.98;;
24034;SDS011;12242;50.952;4.678;2023-02-27T01:01:08;5.68;;;0.98;;
24034;SDS011;12242;50.952;4.678;2023-02-27T01:03:36;4.20;;;1.35;;
24034;SDS011;12242;50.952;4.678;2023-02-27T01:06:03;4.72;;;0.90;;
24034;SDS011;12242;50.952;4.678;2023-02-27T01:08:31;5.63;;;1.25;;
24034;SDS011;12242;50.952;4.678;2023-02-27T01:10:59;2.97;;;1.00;;
24034;SDS011;12242;50.952;4.678;2023-02-27T01:13:26;5.78;;;1.10;;
24034;SDS011;12242;50.952;4.678;2023-02-27T01:15:53;3.63;;;1.13;;
24034;SDS011;12242;50.952;4.678;2023-02-27T01:18:21;6.75;;;1.20;;
24034;SDS011;12242;50.952;4.678;2023-02-27T01:20:52;4.03;;;1.15;;
24034;SDS011;12242;50.952;4.678;2023-02-27T01:23:21;2.15;;;0.90;;
24034;SDS011;12242;50.952;4.678;2023-02-27T01:25:49;4.38;;;1.13;;
24034;SDS011;12242;50.952;4.678;2023-02-27T01:28:16;4.63;;;1.17;;
24034;SDS011;12242;50.952;4.678;2023-02-27T01:30:43;3.78;;;1.08;;
24034;SDS011;12242;50.952;4.678;2023-02-27T01:33:11;3.17;;;0.93;;
24034;SDS011;12242;50.952;4.678;2023-02-27T01:35:39;6.50;;;1.00;;
24034;SDS011;12242;50.952;4.678;2023-02-27T01:38:06;1.63;;;0.73;;
24034;SDS011;12242;50.952;4.678;2023-02-27T01:40:37;5.95;;;1.10;;
24034;SDS011;12242;50.952;4.678;2023-02-27T01:43:06;6.45;;;1.10;;
24034;SDS011;12242;50.952;4.678;2023-02-27T01:45:41;5.90;;;1.33;;
24034;SDS011;12242;50.952;4.678;2023-02-27T01:48:29;4.10;;;1.00;;
24034;SDS011;12242;50.952;4.678;2023-02-27T01:51:02;4.40;;;1.15;;
24034;SDS011;12242;50.952;4.678;2023-02-27T01:53:36;3.85;;;1.20;;
24034;SDS011;12242;50.952;4.678;2023-02-27T01:56:10;3.65;;;0.98;;
24034;SDS011;12242;50.952;4.678;2023-02-27T01:58:41;7.50;;;1.17;;
24034;SDS011;12242;50.952;4.678;2023-02-27T02:01:10;3.97;;;0.90;;
24034;SDS011;12242;50.952;4.678;2023-02-27T02:06:24;6.25;;;0.98;;
24034;SDS011;12242;50.952;4.678;2023-02-27T02:08:53;8.77;;;1.15;;
24034;SDS011;12242;50.952;4.678;2023-02-27T02:11:23;7.50;;;1.10;;
24034;SDS011;12242;50.952;4.678;2023-02-27T02:13:55;4.60;;;1.25;;
24034;SDS011;12242;50.952;4.678;2023-02-27T02:38:57;8.30;;;1.77;;
24034;SDS011;12242;50.952;4.678;2023-02-27T02:41:42;4.93;;;1.27;;
24034;SDS011;12242;50.952;4.678;2023-02-27T02:50:10;6.30;;;1.20;;
24034;SDS011;12242;50.952;4.678;2023-02-27T03:01:14;3.55;;;1.00;;
24034;SDS011;12242;50.952;4.678;2023-02-27T03:03:50;5.70;;;1.17;;
24034;SDS011;12242;50.952;4.678;2023-02-27T03:06:23;2.92;;;1.20;;
24034;SDS011;12242;50.952;4.678;2023-02-27T03:09:11;7.90;;;1.55;;
24034;SDS011;12242;50.952;4.678;2023-02-27T03:11:47;3.30;;;0.90;;
24034;SDS011;12242;50.952;4.678;2023-02-27T03:14:30;3.72;;;1.33;;
24034;SDS011;12242;50.952;4.678;2023-02-27T03:17:04;7.55;;;1.25;;
24034;SDS011;12242;50.952;4.678;2023-02-27T03:19:39;3.85;;;1.20;;
24034;SDS011;12242;50.952;4.678;2023-02-27T03:22:14;5.65;;;1.55;;
24034;SDS011;12242;50.952;4.678;2023-02-27T03:24:49;6.10;;;1.48;;
24034;SDS011;12242;50.952;4.678;2023-02-27T03:27:23;3.92;;;1.10;;
24034;SDS011;12242;50.952;4.678;2023-02-27T03:30:18;3.95;;;1.20;;
24034;SDS011;12242;50.952;4.678;2023-02-27T03:35:44;5.80;;;1.70;;
24034;SDS011;12242;50.952;4.678;2023-02-27T03:38:21;5.47;;;1.30;;
24034;SDS011;12242;50.952;4.678;2023-02-27T03:41:04;3.20;;;1.33;;
24034;SDS011;12242;50.952;4.678;2023-02-27T03:43:42;5.45;;;1.25;;
24034;SDS011;12242;50.952;4.678;2023-02-27T03:46:16;4.95;;;1.30;;
24034;SDS011;12242;50.952;4.678;2023-02-27T03:48:47;5.82;;;1.67;;
24034;SDS011;12242;50.952;4.678;2023-02-27T03:51:18;4.13;;;1.45;;
24034;SDS011;12242;50.952;4.678;2023-02-27T03:56:17;5.82;;;1.27;;
24034;SDS011;12242;50.952;4.678;2023-02-27T03:58:50;4.15;;;1.30;;
24034;SDS011;12242;50.952;4.678;2023-02-27T04:01:19;5.43;;;1.48;;
24034;SDS011;12242;50.952;4.678;2023-02-27T04:03:52;6.60;;;1.25;;
24034;SDS011;12242;50.952;4.678;2023-02-27T04:06:34;4.07;;;1.20;;
24034;SDS011;12242;50.952;4.678;2023-02-27T04:15:28;5.30;;;1.17;;
24034;SDS011;12242;50.952;4.678;2023-02-27T04:20:57;6.43;;;1.63;;
24034;SDS011;12242;50.952;4.678;2023-02-27T04:23:36;7.47;;;1.40;;
24034;SDS011;12242;50.952;4.678;2023-02-27T04:29:06;5.80;;;1.40;;
24034;SDS011;12242;50.952;4.678;2023-02-27T04:42:46;4.55;;;1.63;;
24034;SDS011;12242;50.952;4.678;2023-02-27T04:45:21;10.57;;;1.85;;
24034;SDS011;12242;50.952;4.678;2023-02-27T04:47:53;5.88;;;1.67;;
24034;SDS011;12242;50.952;4.678;2023-02-27T04:53:06;7.72;;;1.80;;
24034;SDS011;12242;50.952;4.678;2023-02-27T04:55:41;8.23;;;1.67;;
24034;SDS011;12242;50.952;4.678;2023-02-27T05:00:59;4.32;;;1.38;;
24034;SDS011;12242;50.952;4.678;2023-02-27T05:03:31;5.10;;;1.60;;
24034;SDS011;12242;50.952;4.678;2023-02-27T05:06:01;4.53;;;1.60;;
24034;SDS011;12242;50.952;4.678;2023-02-27T05:13:48;5.40;;;1.50;;
24034;SDS011;12242;50.952;4.678;2023-02-27T05:19:00;9.13;;;1.52;;
24034;SDS011;12242;50.952;4.678;2023-02-27T05:21:30;4.10;;;1.10;;
24034;SDS011;12242;50.952;4.678;2023-02-27T05:29:35;6.05;;;1.40;;
24034;SDS011;12242;50.952;4.678;2023-02-27T05:38:11;8.70;;;1.60;;
24034;SDS011;12242;50.952;4.678;2023-02-27T05:40:45;3.67;;;1.40;;
24034;SDS011;12242;50.952;4.678;2023-02-27T05:43:18;8.25;;;1.83;;
24034;SDS011;12242;50.952;4.678;2023-02-27T05:45:49;6.47;;;1.70;;
24034;SDS011;12242;50.952;4.678;2023-02-27T05:48:26;5.32;;;2.30;;
24034;SDS011;12242;50.952;4.678;2023-02-27T05:51:02;5.03;;;1.80;;
24034;SDS011;12242;50.952;4.678;2023-02-27T05:53:34;5.70;;;2.00;;
24034;SDS011;12242;50.952;4.678;2023-02-27T05:58:35;5.65;;;1.75;;
24034;SDS011;12242;50.952;4.678;2023-02-27T06:01:08;5.97;;;1.88;;
24034;SDS011;12242;50.952;4.678;2023-02-27T06:03:37;3.15;;;1.33;;
24034;SDS011;12242;50.952;4.678;2023-02-27T06:06:07;4.75;;;1.40;;
24034;SDS011;12242;50.952;4.678;2023-02-27T06:08:39;3.28;;;1.55;;
24034;SDS011;12242;50.952;4.678;2023-02-27T06:11:07;11.23;;;1.80;;
24034;SDS011;12242;50.952;4.678;2023-02-27T06:13:34;13.05;;;2.10;;
24034;SDS011;12242;50.952;4.678;2023-02-27T06:16:02;5.18;;;1.70;;
24034;SDS011;12242;50.952;4.678;2023-02-27T06:18:29;8.00;;;2.45;;
24034;SDS011;12242;50.952;4.678;2023-02-27T06:20:57;6.47;;;2.15;;
24034;SDS011;12242;50.952;4.678;2023-02-27T06:23:25;8.00;;;2.00;;
24034;SDS011;12242;50.952;4.678;2023-02-27T06:25:52;4.53;;;2.00;;
24034;SDS011;12242;50.952;4.678;2023-02-27T06:28:20;7.30;;;2.58;;
24034;SDS011;12242;50.952;4.678;2023-02-27T06:30:51;6.25;;;2.00;;
24034;SDS011;12242;50.952;4.678;2023-02-27T06:33:20;4.95;;;1.50;;
24034;SDS011;12242;50.952;4.678;2023-02-27T06:35:48;10.93;;;2.13;;
24034;SDS011;12242;50.952;4.678;2023-02-27T06:38:15;5.88;;;2.13;;
24034;SDS011;12242;50.952;4.678;2023-02-27T06:40:43;5.70;;;1.90;;
24034;SDS011;12242;50.952;4.678;2023-02-27T06:43:11;7.32;;;2.00;;
24034;SDS011;12242;50.952;4.678;2023-02-27T06:45:40;5.93;;;1.95;;
24034;SDS011;12242;50.952;4.678;2023-02-27T06:48:08;11.80;;;2.40;;
24034;SDS011;12242;50.952;4.678;2023-02-27T06:50:38;9.30;;;2.03;;
24034;SDS011;12242;50.952;4.678;2023-02-27T06:53:05;5.55;;;1.77;;
24034;SDS011;12242;50.952;4.678;2023-02-27T06:55:33;6.95;;;2.45;;
24034;SDS011;12242;50.952;4.678;2023-02-27T06:58:01;7.15;;;2.63;;
24034;SDS011;12242;50.952;4.678;2023-02-27T07:00:28;6.50;;;3.00;;
24034;SDS011;12242;50.952;4.678;2023-02-27T07:02:56;6.57;;;2.40;;
24034;SDS011;12242;50.952;4.678;2023-02-27T07:05:23;6.75;;;2.20;;
24034;SDS011;12242;50.952;4.678;2023-02-27T07:07:51;6.47;;;2.53;;
24034;SDS011;12242;50.952;4.678;2023-02-27T07:10:19;7.32;;;2.67;;
24034;SDS011;12242;50.952;4.678;2023-02-27T07:12:47;10.65;;;3.00;;
24034;SDS011;12242;50.952;4.678;2023-02-27T07:15:14;7.18;;;2.80;;
24034;SDS011;12242;50.952;4.678;2023-02-27T07:17:42;8.57;;;2.42;;
24034;SDS011;12242;50.952;4.678;2023-02-27T07:20:09;6.70;;;2.03;;
24034;SDS011;12242;50.952;4.678;2023-02-27T07:22:38;9.02;;;3.08;;
24034;SDS011;12242;50.952;4.678;2023-02-27T07:25:07;6.32;;;2.47;;
24034;SDS011;12242;50.952;4.678;2023-02-27T07:27:35;6.70;;;1.95;;
24034;SDS011;12242;50.952;4.678;2023-02-27T07:30:03;5.25;;;2.28;;
24034;SDS011;12242;50.952;4.678;2023-02-27T07:32:31;7.05;;;2.35;;
24034;SDS011;12242;50.952;4.678;2023-02-27T07:34:58;7.25;;;2.65;;
24034;SDS011;12242;50.952;4.678;2023-02-27T07:37:26;7.35;;;2.45;;
24034;SDS011;12242;50.952;4.678;2023-02-27T07:39:54;6.93;;;2.80;;
24034;SDS011;12242;50.952;4.678;2023-02-27T07:42:22;11.48;;;2.85;;
24034;SDS011;12242;50.952;4.678;2023-02-27T07:44:49;5.82;;;2.45;;
24034;SDS011;12242;50.952;4.678;2023-02-27T07:47:17;9.52;;;2.28;;
24034;SDS011;12242;50.952;4.678;2023-02-27T07:49:44;5.88;;;2.50;;
24034;SDS011;12242;50.952;4.678;2023-02-27T07:52:12;4.72;;;2.10;;
24034;SDS011;12242;50.952;4.678;2023-02-27T07:54:39;7.38;;;2.33;;
24034;SDS011;12242;50.952;4.678;2023-02-27T07:57:07;7.47;;;2.13;;
24034;SDS011;12242;50.952;4.678;2023-02-27T07:59:34;7.60;;;2.17;;
24034;SDS011;12242;50.952;4.678;2023-02-27T08:02:02;6.97;;;2.33;;
24034;SDS011;12242;50.952;4.678;2023-02-27T08:04:30;7.80;;;2.25;;
24034;SDS011;12242;50.952;4.678;2023-02-27T08:06:57;5.57;;;2.30;;
24034;SDS011;12242;50.952;4.678;2023-02-27T08:09:25;8.65;;;2.40;;
24034;SDS011;12242;50.952;4.678;2023-02-27T08:11:52;9.63;;;2.83;;
24034;SDS011;12242;50.952;4.678;2023-02-27T08:14:20;10.05;;;2.35;;
24034;SDS011;12242;50.952;4.678;2023-02-27T08:16:48;8.05;;;2.90;;
24034;SDS011;12242;50.952;4.678;2023-02-27T08:19:15;6.75;;;2.78;;
24034;SDS011;12242;50.952;4.678;2023-02-27T08:21:43;8.55;;;2.50;;
24034;SDS011;12242;50.952;4.678;2023-02-27T08:24:10;6.20;;;2.55;;
24034;SDS011;12242;50.952;4.678;2023-02-27T08:26:38;7.13;;;2.90;;
24034;SDS011;12242;50.952;4.678;2023-02-27T08:29:05;6.35;;;2.75;;
24034;SDS011;12242;50.952;4.678;2023-02-27T08:31:33;13.07;;;2.33;;
24034;SDS011;12242;50.952;4.678;2023-02-27T08:34:01;6.20;;;2.40;;
24034;SDS011;12242;50.952;4.678;2023-02-27T08:36:36;7.72;;;2.88;;
24034;SDS011;12242;50.952;4.678;2023-02-27T08:39:05;8.52;;;2.97;;
24034;SDS011;12242;50.952;4.678;2023-02-27T08:41:33;6.72;;;2.72;;
24034;SDS011;12242;50.952;4.678;2023-02-27T08:44:01;9.43;;;2.75;;
24034;SDS011;12242;50.952;4.678;2023-02-27T08:46:29;7.63;;;2.53;;
24034;SDS011;12242;50.952;4.678;2023-02-27T08:48:57;8.80;;;2.88;;
24034;SDS011;12242;50.952;4.678;2023-02-27T08:51:24;8.18;;;3.00;;
24034;SDS011;12242;50.952;4.678;2023-02-27T08:53:53;5.20;;;2.47;;
24034;SDS011;12242;50.952;4.678;2023-02-27T08:56:25;6.35;;;2.15;;
24034;SDS011;12242;50.952;4.678;2023-02-27T08:58:54;6.20;;;2.38;;
24034;SDS011;12242;50.952;4.678;2023-02-27T09:01:22;5.63;;;2.10;;
24034;SDS011;12242;50.952;4.678;2023-02-27T09:03:53;5.18;;;2.08;;
24034;SDS011;12242;50.952;4.678;2023-02-27T09:06:21;6.97;;;2.25;;
24034;SDS011;12242;50.952;4.678;2023-02-27T09:08:51;7.45;;;2.10;;
24034;SDS011;12242;50.952;4.678;2023-02-27T09:11:19;7.03;;;2.22;;
24034;SDS011;12242;50.952;4.678;2023-02-27T09:13:47;7.22;;;2.38;;
24034;SDS011;12242;50.952;4.678;2023-02-27T09:16:14;4.25;;;1.85;;
24034;SDS011;12242;50.952;4.678;2023-02-27T09:18:42;8.40;;;1.88;;
24034;SDS011;12242;50.952;4.678;2023-02-27T09:21:10;5.60;;;1.85;;
24034;SDS011;12242;50.952;4.678;2023-02-27T09:23:38;3.28;;;1.65;;
24034;SDS011;12242;50.952;4.678;2023-02-27T09:26:06;4.50;;;2.05;;
24034;SDS011;12242;50.952;4.678;2023-02-27T09:28:35;7.90;;;2.10;;
24034;SDS011;12242;50.952;4.678;2023-02-27T09:31:06;5.38;;;1.77;;
24034;SDS011;12242;50.952;4.678;2023-02-27T09:33:34;5.35;;;1.45;;
24034;SDS011;12242;50.952;4.678;2023-02-27T09:36:03;6.05;;;1.77;;
24034;SDS011;12242;50.952;4.678;2023-02-27T09:38:32;5.47;;;1.65;;
24034;SDS011;12242;50.952;4.678;2023-02-27T09:41:01;5.43;;;1.45;;
24034;SDS011;12242;50.952;4.678;2023-02-27T09:43:34;5.30;;;1.83;;
24034;SDS011;12242;50.952;4.678;2023-02-27T09:46:17;2.95;;;1.20;;
24034;SDS011;12242;50.952;4.678;2023-02-27T09:48:54;4.28;;;1.20;;
24034;SDS011;12242;50.952;4.678;2023-02-27T09:51:24;3.15;;;1.30;;
24034;SDS011;12242;50.952;4.678;2023-02-27T09:53:54;3.15;;;1.30;;
24034;SDS011;12242;50.952;4.678;2023-02-27T09:56:26;5.90;;;1.30;;
24034;SDS011;12242;50.952;4.678;2023-02-27T10:01:41;8.00;;;1.20;;
24034;SDS011;12242;50.952;4.678;2023-02-27T10:10:00;6.60;;;1.30;;
24034;SDS011;12242;50.952;4.678;2023-02-27T10:12:22;3.53;;;1.20;;
24034;SDS011;12242;50.952;4.678;2023-02-27T10:15:08;8.00;;;0.90;;
24034;SDS011;12242;50.952;4.678;2023-02-27T10:17:59;3.47;;;0.88;;
24034;SDS011;12242;50.952;4.678;2023-02-27T10:21:10;2.58;;;0.80;;
24034;SDS011;12242;50.952;4.678;2023-02-27T10:23:43;3.63;;;1.05;;
24034;SDS011;12242;50.952;4.678;2023-02-27T10:26:18;4.18;;;1.00;;
24034;SDS011;12242;50.952;4.678;2023-02-27T10:28:47;4.70;;;0.88;;
24034;SDS011;12242;50.952;4.678;2023-02-27T10:31:16;2.83;;;0.93;;
24034;SDS011;12242;50.952;4.678;2023-02-27T10:33:48;2.67;;;0.98;;
24034;SDS011;12242;50.952;4.678;2023-02-27T10:36:16;3.13;;;0.73;;
24034;SDS011;12242;50.952;4.678;2023-02-27T10:39:06;2.13;;;0.80;;
24034;SDS011;12242;50.952;4.678;2023-02-27T10:41:36;6.82;;;1.75;;
24034;SDS011;12242;50.952;4.678;2023-02-27T10:44:05;5.60;;;1.00;;
24034;SDS011;12242;50.952;4.678;2023-02-27T10:46:34;5.15;;;1.10;;
24034;SDS011;12242;50.952;4.678;2023-02-27T10:49:11;4.93;;;1.30;;
24034;SDS011;12242;50.952;4.678;2023-02-27T10:51:45;7.75;;;1.95;;
24034;SDS011;12242;50.952;4.678;2023-02-27T10:54:29;5.43;;;1.10;;
24034;SDS011;12242;50.952;4.678;2023-02-27T10:56:59;4.68;;;1.00;;
24034;SDS011;12242;50.952;4.678;2023-02-27T10:59:32;4.15;;;1.00;;
24034;SDS011;12242;50.952;4.678;2023-02-27T11:04:53;3.50;;;1.20;;
24034;SDS011;12242;50.952;4.678;2023-02-27T11:08:09;2.97;;;1.05;;
24034;SDS011;12242;50.952;4.678;2023-02-27T11:13:04;10.18;;;4.20;;
24034;SDS011;12242;50.952;4.678;2023-02-27T11:16:33;5.63;;;1.60;;
24034;SDS011;12242;50.952;4.678;2023-02-27T11:21:12;4.43;;;1.52;;
24034;SDS011;12242;50.952;4.678;2023-02-27T11:26:28;3.67;;;1.23;;
24034;SDS011;12242;50.952;4.678;2023-02-27T11:29:17;2.92;;;1.08;;
24034;SDS011;12242;50.952;4.678;2023-02-27T11:34:21;3.30;;;1.20;;
24034;SDS011;12242;50.952;4.678;2023-02-27T11:36:59;6.70;;;1.35;;
24034;SDS011;12242;50.952;4.678;2023-02-27T11:39:46;2.20;;;0.82;;
24034;SDS011;12242;50.952;4.678;2023-02-27T11:42:22;3.65;;;1.17;;
24034;SDS011;12242;50.952;4.678;2023-02-27T11:44:55;3.77;;;1.00;;
24034;SDS011;12242;50.952;4.678;2023-02-27T11:47:29;1.85;;;0.82;;
24034;SDS011;12242;50.952;4.678;2023-02-27T11:56:08;4.32;;;0.80;;
24034;SDS011;12242;50.952;4.678;2023-02-27T11:58:45;2.78;;;0.77;;
24034;SDS011;12242;50.952;4.678;2023-02-27T12:01:23;2.92;;;0.95;;
24034;SDS011;12242;50.952;4.678;2023-02-27T12:06:34;3.35;;;1.10;;
24034;SDS011;12242;50.952;4.678;2023-02-27T12:09:16;2.13;;;1.00;;
24034;SDS011;12242;50.952;4.678;2023-02-27T12:11:46;2.42;;;0.70;;
24034;SDS011;12242;50.952;4.678;2023-02-27T12:14:17;4.53;;;1.23;;
24034;SDS011;12242;50.952;4.678;2023-02-27T12:16:58;3.90;;;0.90;;
24034;SDS011;12242;50.952;4.678;2023-02-27T12:19:43;3.45;;;0.95;;
24034;SDS011;12242;50.952;4.678;2023-02-27T12:22:21;2.38;;;0.90;;
24034;SDS011;12242;50.952;4.678;2023-02-27T12:30:25;3.15;;;0.65;;
24034;SDS011;12242;50.952;4.678;2023-02-27T12:35:49;4.88;;;1.40;;
24034;SDS011;12242;50.952;4.678;2023-02-27T12:38:25;5.30;;;1.58;;
24034;SDS011;12242;50.952;4.678;2023-02-27T12:49:15;1.95;;;0.70;;
24034;SDS011;12242;50.952;4.678;2023-02-27T12:52:09;1.67;;;0.60;;
24034;SDS011;12242;50.952;4.678;2023-02-27T12:58:05;1.73;;;0.60;;
24034;SDS011;12242;50.952;4.678;2023-02-27T13:01:09;1.90;;;0.70;;
24034;SDS011;12242;50.952;4.678;2023-02-27T13:06:21;2.20;;;0.82;;
24034;SDS011;12242;50.952;4.678;2023-02-27T13:25:45;2.58;;;0.70;;
24034;SDS011;12242;50.952;4.678;2023-02-27T13:28:17;3.40;;;0.87;;
24034;SDS011;12242;50.952;4.678;2023-02-27T13:36:26;1.52;;;0.70;;
24034;SDS011;12242;50.952;4.678;2023-02-27T13:44:53;1.42;;;0.70;;
24034;SDS011;12242;50.952;4.678;2023-02-27T13:47:35;2.17;;;0.88;;
24034;SDS011;12242;50.952;4.678;2023-02-27T13:52:44;7.43;;;1.00;;
24034;SDS011;12242;50.952;4.678;2023-02-27T13:55:29;4.50;;;0.77;;
24034;SDS011;12242;50.952;4.678;2023-02-27T13:58:01;3.05;;;0.90;;
24034;SDS011;12242;50.952;4.678;2023-02-27T14:00:31;1.77;;;0.73;;
24034;SDS011;12242;50.952;4.678;2023-02-27T14:03:05;3.70;;;1.13;;
24034;SDS011;12242;50.952;4.678;2023-02-27T14:05:47;2.47;;;1.08;;
24034;SDS011;12242;50.952;4.678;2023-02-27T14:08:20;2.22;;;0.90;;
24034;SDS011;12242;50.952;4.678;2023-02-27T14:24:32;3.05;;;1.00;;
24034;SDS011;12242;50.952;4.678;2023-02-27T14:27:23;1.92;;;0.80;;
24034;SDS011;12242;50.952;4.678;2023-02-27T14:29:53;5.20;;;0.98;;
24034;SDS011;12242;50.952;4.678;2023-02-27T14:32:24;2.60;;;0.75;;
24034;SDS011;12242;50.952;4.678;2023-02-27T14:37:24;2.88;;;0.98;;
24034;SDS011;12242;50.952;4.678;2023-02-27T14:39:53;2.55;;;1.02;;
24034;SDS011;12242;50.952;4.678;2023-02-27T14:42:25;4.25;;;0.80;;
24034;SDS011;12242;50.952;4.678;2023-02-27T14:45:20;3.60;;;0.95;;
24034;SDS011;12242;50.952;4.678;2023-02-27T14:47:50;2.17;;;0.95;;
24034;SDS011;12242;50.952;4.678;2023-02-27T14:50:29;4.40;;;0.90;;
24034;SDS011;12242;50.952;4.678;2023-02-27T14:53:00;2.88;;;0.68;;
24034;SDS011;12242;50.952;4.678;2023-02-27T14:55:32;2.63;;;1.00;;
24034;SDS011;12242;50.952;4.678;2023-02-27T14:58:08;2.20;;;0.70;;
24034;SDS011;12242;50.952;4.678;2023-02-27T15:00:46;4.00;;;0.80;;
24034;SDS011;12242;50.952;4.678;2023-02-27T15:03:43;1.80;;;0.80;;
24034;SDS011;12242;50.952;4.678;2023-02-27T15:06:17;3.47;;;0.90;;
24034;SDS011;12242;50.952;4.678;2023-02-27T15:09:03;4.40;;;0.90;;
24034;SDS011;12242;50.952;4.678;2023-02-27T15:11:31;3.40;;;0.90;;
24034;SDS011;12242;50.952;4.678;2023-02-27T15:14:03;5.43;;;0.88;;
24034;SDS011;12242;50.952;4.678;2023-02-27T15:16:33;4.95;;;0.70;;
24034;SDS011;12242;50.952;4.678;2023-02-27T15:21:39;2.92;;;1.02;;
24034;SDS011;12242;50.952;4.678;2023-02-27T15:24:18;4.03;;;1.10;;
24034;SDS011;12242;50.952;4.678;2023-02-27T15:26:52;2.47;;;0.90;;
24034;SDS011;12242;50.952;4.678;2023-02-27T15:29:23;4.03;;;0.93;;
24034;SDS011;12242;50.952;4.678;2023-02-27T15:31:55;3.25;;;1.23;;
24034;SDS011;12242;50.952;4.678;2023-02-27T15:34:23;1.95;;;0.88;;
24034;SDS011;12242;50.952;4.678;2023-02-27T15:36:51;2.53;;;1.08;;
24034;SDS011;12242;50.952;4.678;2023-02-27T15:39:21;4.55;;;1.50;;
24034;SDS011;12242;50.952;4.678;2023-02-27T15:42:00;2.90;;;1.20;;
24034;SDS011;12242;50.952;4.678;2023-02-27T15:44:39;3.03;;;1.05;;
24034;SDS011;12242;50.952;4.678;2023-02-27T15:47:11;3.92;;;1.33;;
24034;SDS011;12242;50.952;4.678;2023-02-27T15:49:46;2.42;;;1.10;;
24034;SDS011;12242;50.952;4.678;2023-02-27T15:52:19;5.90;;;1.33;;
24034;SDS011;12242;50.952;4.678;2023-02-27T15:54:52;3.67;;;1.27;;
24034;SDS011;12242;50.952;4.678;2023-02-27T15:57:25;3.10;;;1.00;;
24034;SDS011;12242;50.952;4.678;2023-02-27T15:59:53;5.90;;;1.85;;
24034;SDS011;12242;50.952;4.678;2023-02-27T16:02:25;5.20;;;1.35;;
24034;SDS011;12242;50.952;4.678;2023-02-27T16:05:05;3.83;;;1.45;;
24034;SDS011;12242;50.952;4.678;2023-02-27T16:07:45;3.05;;;1.20;;
24034;SDS011;12242;50.952;4.678;2023-02-27T16:10:20;5.45;;;1.40;;
24034;SDS011;12242;50.952;4.678;2023-02-27T16:12:54;2.75;;;1.17;;
24034;SDS011;12242;50.952;4.678;2023-02-27T16:20:38;3.83;;;1.10;;
24034;SDS011;12242;50.952;4.678;2023-02-27T16:26:05;2.03;;;0.93;;
24034;SDS011;12242;50.952;4.678;2023-02-27T16:28:58;4.15;;;1.30;;
24034;SDS011;12242;50.952;4.678;2023-02-27T16:31:27;3.22;;;1.15;;
24034;SDS011;12242;50.952;4.678;2023-02-27T16:34:01;4.13;;;1.10;;
24034;SDS011;12242;50.952;4.678;2023-02-27T16:36:54;1.95;;;1.10;;
24034;SDS011;12242;50.952;4.678;2023-02-27T16:39:27;3.40;;;1.55;;
24034;SDS011;12242;50.952;4.678;2023-02-27T16:41:55;4.80;;;1.02;;
24034;SDS011;12242;50.952;4.678;2023-02-27T16:44:24;3.45;;;1.15;;
24034;SDS011;12242;50.952;4.678;2023-02-27T16:46:53;5.38;;;1.35;;
24034;SDS011;12242;50.952;4.678;2023-02-27T16:49:23;5.13;;;1.33;;
24034;SDS011;12242;50.952;4.678;2023-02-27T16:51:57;3.63;;;1.23;;
24034;SDS011;12242;50.952;4.678;2023-02-27T16:54:26;3.15;;;1.40;;
24034;SDS011;12242;50.952;4.678;2023-02-27T16:56:54;3.25;;;1.10;;
24034;SDS011;12242;50.952;4.678;2023-02-27T17:01:55;3.55;;;1.15;;
24034;SDS011;12242;50.952;4.678;2023-02-27T17:04:24;4.20;;;1.00;;
24034;SDS011;12242;50.952;4.678;2023-02-27T17:06:53;4.40;;;1.23;;
24034;SDS011;12242;50.952;4.678;2023-02-27T17:09:23;2.17;;;1.10;;
24034;SDS011;12242;50.952;4.678;2023-02-27T17:11:53;3.15;;;1.30;;
24034;SDS011;12242;50.952;4.678;2023-02-27T17:14:22;3.00;;;1.40;;
24034;SDS011;12242;50.952;4.678;2023-02-27T17:16:50;3.28;;;1.38;;
24034;SDS011;12242;50.952;4.678;2023-02-27T17:19:18;4.50;;;1.05;;
24034;SDS011;12242;50.952;4.678;2023-02-27T17:21:47;4.80;;;1.17;;
24034;SDS011;12242;50.952;4.678;2023-02-27T17:24:16;3.00;;;1.40;;
24034;SDS011;12242;50.952;4.678;2023-02-27T17:26:43;4.72;;;1.60;;
24034;SDS011;12242;50.952;4.678;2023-02-27T17:29:11;2.53;;;1.42;;
24034;SDS011;12242;50.952;4.678;2023-02-27T17:31:40;7.03;;;1.58;;
24034;SDS011;12242;50.952;4.678;2023-02-27T17:34:09;3.28;;;1.40;;
24034;SDS011;12242;50.952;4.678;2023-02-27T17:36:36;4.07;;;1.48;;
24034;SDS011;12242;50.952;4.678;2023-02-27T17:39:04;3.72;;;1.52;;
24034;SDS011;12242;50.952;4.678;2023-02-27T17:41:32;4.88;;;1.90;;
24034;SDS011;12242;50.952;4.678;2023-02-27T17:43:59;3.97;;;1.50;;
24034;SDS011;12242;50.952;4.678;2023-02-27T17:46:28;4.55;;;1.60;;
24034;SDS011;12242;50.952;4.678;2023-02-27T17:48:57;8.15;;;1.75;;
24034;SDS011;12242;50.952;4.678;2023-02-27T17:51:28;3.72;;;1.42;;
24034;SDS011;12242;50.952;4.678;2023-02-27T17:53:56;3.10;;;1.45;;
24034;SDS011;12242;50.952;4.678;2023-02-27T17:56:26;3.28;;;1.65;;
24034;SDS011;12242;50.952;4.678;2023-02-27T17:58:54;3.05;;;1.20;;
24034;SDS011;12242;50.952;4.678;2023-02-27T18:01:23;4.93;;;1.80;;
24034;SDS011;12242;50.952;4.678;2023-02-27T18:03:52;4.72;;;1.42;;
24034;SDS011;12242;50.952;4.678;2023-02-27T18:06:20;3.58;;;1.60;;
24034;SDS011;12242;50.952;4.678;2023-02-27T18:08:49;3.90;;;1.55;;
24034;SDS011;12242;50.952;4.678;2023-02-27T18:11:18;4.97;;;1.70;;
24034;SDS011;12242;50.952;4.678;2023-02-27T18:13:47;5.90;;;2.15;;
24034;SDS011;12242;50.952;4.678;2023-02-27T18:16:16;4.97;;;2.05;;
24034;SDS011;12242;50.952;4.678;2023-02-27T18:18:44;9.82;;;2.40;;
24034;SDS011;12242;50.952;4.678;2023-02-27T18:21:16;4.45;;;1.95;;
24034;SDS011;12242;50.952;4.678;2023-02-27T18:23:49;6.13;;;1.67;;
24034;SDS011;12242;50.952;4.678;2023-02-27T18:26:22;4.32;;;1.67;;
24034;SDS011;12242;50.952;4.678;2023-02-27T18:28:57;5.43;;;1.77;;
24034;SDS011;12242;50.952;4.678;2023-02-27T18:31:27;7.18;;;1.80;;
24034;SDS011;12242;50.952;4.678;2023-02-27T18:33:57;6.32;;;2.20;;
24034;SDS011;12242;50.952;4.678;2023-02-27T18:36:25;6.20;;;1.90;;
24034;SDS011;12242;50.952;4.678;2023-02-27T18:38:54;5.18;;;1.48;;
24034;SDS011;12242;50.952;4.678;2023-02-27T18:41:22;12.00;;;2.20;;
24034;SDS011;12242;50.952;4.678;2023-02-27T18:43:50;9.20;;;2.30;;
24034;SDS011;12242;50.952;4.678;2023-02-27T18:46:18;3.05;;;1.80;;